Time;durP1;ratioP1;P1;durP2;ratioP2;P2;SDS_P1;SDS_P2;PMS_P1;PMS_P2;Temp;Humidity;BMP_temperature;BMP_pressure;BME280_temperature;BME280_humidity;BME280_pressure;Samples;Min_cycle;Max_cycle;Signal;HPM_P1;HPM_P2
2023/06/25 03:00:25;;;;;;;4.13;3.50;;;25.10;41.50;;;;;;5027981;28;45061;-58
2023/06/25 03:02:50;;;;;;;5.60;3.70;;;25.10;41.60;;;;;;4947705;28;45522;-56
2023/06/25 03:05:16;;;;;;;4.93;3.90;;;25.00;41.60;;;;;;4941898;28;45666;-57
2023/06/25 03:07:55;;;;;;;5.57;3.78;;;25.10;41.70;;;;;;4965598;28;45306;-54
2023/06/25 03:10:25;;;;;;;3.80;3.42;;;25.10;41.70;;;;;;4964799;28;46060;-56
2023/06/25 03:12:51;;;;;;;6.90;3.90;;;25.00;41.60;;;;;;4965634;28;46181;-56
2023/06/25 03:15:17;;;;;;;5.45;4.10;;;25.10;41.60;;;;;;4959451;28;45326;-57
2023/06/25 03:17:43;;;;;;;5.03;3.47;;;25.10;41.50;;;;;;4943016;28;48806;-56
2023/06/25 03:20:10;;;;;;;6.53;3.60;;;25.10;41.40;;;;;;4963881;28;46213;-58
2023/06/25 03:22:35;;;;;;;4.38;3.53;;;25.10;41.50;;;;;;4962777;28;45286;-59
2023/06/25 03:25:02;;;;;;;4.45;3.40;;;25.10;41.50;;;;;;4968832;28;45651;-57
2023/06/25 03:27:28;;;;;;;4.90;3.50;;;25.10;41.60;;;;;;4933134;28;45318;-57
2023/06/25 03:29:54;;;;;;;4.80;3.63;;;25.10;41.50;;;;;;4948393;28;45959;-57
2023/06/25 03:32:19;;;;;;;5.15;3.75;;;25.00;41.50;;;;;;4958942;28;45596;-59
2023/06/25 03:34:45;;;;;;;4.05;3.65;;;25.00;41.60;;;;;;4968997;28;46141;-59
2023/06/25 03:37:10;;;;;;;4.93;3.42;;;25.00;41.60;;;;;;4964510;28;45647;-57
2023/06/25 03:39:36;;;;;;;4.90;3.58;;;25.00;41.70;;;;;;4967524;28;46216;-58
2023/06/25 03:42:02;;;;;;;6.65;3.80;;;25.00;41.80;;;;;;4963244;28;45674;-58
2023/06/25 03:44:27;;;;;;;5.38;3.55;;;25.00;41.80;;;;;;4969514;28;45440;-58
2023/06/25 03:46:53;;;;;;;3.83;3.42;;;24.90;41.80;;;;;;4958758;28;46361;-56
2023/06/25 03:49:18;;;;;;;4.70;3.70;;;24.90;41.90;;;;;;4967076;28;45893;-59
2023/06/25 03:51:44;;;;;;;4.13;3.30;;;24.90;41.90;;;;;;4946556;28;45271;-59
2023/06/25 03:54:09;;;;;;;5.35;3.55;;;24.80;41.90;;;;;;4967625;28;46300;-59
2023/06/25 03:56:34;;;;;;;5.30;3.55;;;24.90;41.90;;;;;;4963571;28;45340;-58
2023/06/25 03:59:00;;;;;;;5.63;3.65;;;24.90;41.80;;;;;;4966170;28;47631;-57
2023/06/25 04:01:25;;;;;;;6.10;3.05;;;24.90;41.80;;;;;;4957859;28;45579;-56
2023/06/25 04:03:51;;;;;;;5.05;3.67;;;25.00;41.70;;;;;;4966936;28;45757;-59
2023/06/25 04:06:17;;;;;;;4.70;3.20;;;24.90;41.70;;;;;;4962053;28;45573;-57
2023/06/25 04:08:42;;;;;;;4.93;3.53;;;24.90;41.80;;;;;;4966755;28;46097;-55
2023/06/25 04:11:08;;;;;;;5.63;4.00;;;24.90;42.50;;;;;;4963278;28;46210;-58
2023/06/25 04:13:33;;;;;;;5.47;3.33;;;24.80;42.00;;;;;;4967950;28;45342;-59
2023/06/25 04:15:59;;;;;;;4.05;3.42;;;24.80;42.10;;;;;;4957861;28;45690;-61
2023/06/25 04:18:24;;;;;;;4.82;3.75;;;24.80;42.10;;;;;;4931356;28;47128;-57
2023/06/25 04:20:50;;;;;;;7.75;3.78;;;24.80;41.90;;;;;;4944112;28;45692;-57
2023/06/25 04:23:16;;;;;;;5.95;3.72;;;24.90;42.00;;;;;;4965398;28;45416;-57
2023/06/25 04:25:43;;;;;;;4.10;3.50;;;24.90;41.90;;;;;;4946734;28;46373;-57
2023/06/25 04:28:15;;;;;;;4.35;3.58;;;24.90;41.90;;;;;;4967918;28;47101;-58
2023/06/25 04:30:41;;;;;;;4.70;3.70;;;24.90;42.00;;;;;;4958068;28;45734;-58
2023/06/25 04:33:07;;;;;;;3.95;3.22;;;24.90;42.00;;;;;;4964957;28;46132;-58
2023/06/25 04:35:33;;;;;;;4.65;4.05;;;24.80;42.10;;;;;;4962213;28;45879;-57
2023/06/25 04:37:58;;;;;;;5.07;4.22;;;24.80;42.30;;;;;;4966086;28;46194;-59
2023/06/25 04:40:24;;;;;;;6.78;3.78;;;24.80;42.30;;;;;;4964025;28;45473;-57
2023/06/25 04:42:50;;;;;;;4.45;3.50;;;24.80;42.40;;;;;;4964243;28;45748;-58
2023/06/25 04:45:15;;;;;;;5.57;3.47;;;24.80;42.40;;;;;;4961678;28;45506;-57
2023/06/25 04:47:41;;;;;;;6.72;3.67;;;24.80;42.40;;;;;;4963211;28;45601;-58
2023/06/25 04:50:06;;;;;;;4.78;4.22;;;24.90;42.40;;;;;;4960772;28;45680;-59
2023/06/25 04:52:32;;;;;;;4.45;3.85;;;24.90;42.50;;;;;;4965220;28;45329;-57
2023/06/25 04:54:58;;;;;;;6.25;4.20;;;24.90;42.50;;;;;;4965743;28;45436;-58
2023/06/25 04:57:23;;;;;;;5.38;3.95;;;24.90;42.80;;;;;;4961871;28;46203;-56
2023/06/25 04:59:49;;;;;;;6.55;3.85;;;24.90;42.50;;;;;;4965064;28;45510;-54
2023/06/25 05:02:14;;;;;;;5.88;4.18;;;24.90;42.50;;;;;;4950574;28;45723;-56
2023/06/25 05:04:40;;;;;;;4.90;3.70;;;24.90;42.70;;;;;;4964998;28;45412;-55
2023/06/25 05:07:05;;;;;;;5.45;4.30;;;24.90;42.80;;;;;;4949246;28;45409;-55
2023/06/25 05:09:31;;;;;;;6.38;4.10;;;24.90;42.80;;;;;;4965908;28;45681;-58
2023/06/25 05:11:56;;;;;;;8.65;4.65;;;24.90;43.00;;;;;;4956473;28;45504;-58
2023/06/25 05:14:22;;;;;;;4.72;4.20;;;24.90;43.20;;;;;;4963770;28;45464;-57
2023/06/25 05:16:47;;;;;;;6.10;3.97;;;24.90;43.20;;;;;;4956937;28;46069;-58
2023/06/25 05:19:13;;;;;;;5.80;3.70;;;24.90;43.20;;;;;;4963407;28;45698;-57
2023/06/25 05:21:39;;;;;;;5.60;3.80;;;25.00;43.20;;;;;;4958110;28;45690;-58
2023/06/25 05:24:04;;;;;;;3.90;3.30;;;25.00;43.20;;;;;;4963527;28;46281;-58
2023/06/25 05:26:30;;;;;;;4.80;3.90;;;25.00;43.10;;;;;;4956695;28;45511;-58
2023/06/25 05:28:56;;;;;;;5.43;3.50;;;25.10;43.10;;;;;;4967907;28;45171;-58
2023/06/25 05:31:21;;;;;;;3.97;3.45;;;25.10;43.00;;;;;;4944203;28;45068;-55
2023/06/25 05:33:47;;;;;;;6.13;3.63;;;25.10;43.60;;;;;;4967086;28;45431;-54
2023/06/25 05:36:13;;;;;;;4.75;3.67;;;25.10;43.10;;;;;;4946235;28;46050;-57
2023/06/25 05:38:38;;;;;;;6.40;4.82;;;25.20;43.20;;;;;;4968462;28;46545;-58
2023/06/25 05:41:04;;;;;;;4.68;3.83;;;25.20;43.20;;;;;;4962862;28;45643;-58
2023/06/25 05:43:29;;;;;;;4.22;3.60;;;25.20;43.20;;;;;;4967831;28;45302;-56
2023/06/25 05:45:55;;;;;;;3.88;3.15;;;25.20;43.20;;;;;;4959310;28;47376;-55
2023/06/25 05:48:20;;;;;;;4.50;3.58;;;25.20;43.20;;;;;;4967294;28;45619;-54
2023/06/25 05:50:46;;;;;;;3.53;3.13;;;25.20;43.20;;;;;;4965101;28;45797;-57
2023/06/25 05:53:11;;;;;;;5.10;3.72;;;25.20;43.10;;;;;;4969038;28;45290;-55
2023/06/25 05:55:37;;;;;;;4.45;3.50;;;25.30;43.20;;;;;;4962698;28;45959;-57
2023/06/25 05:58:02;;;;;;;6.72;3.63;;;25.30;43.20;;;;;;4965589;28;45913;-56
2023/06/25 06:00:28;;;;;;;5.47;3.30;;;25.30;43.20;;;;;;4960646;28;45377;-56
2023/06/25 06:02:53;;;;;;;4.45;3.47;;;25.30;43.20;;;;;;4962696;28;45497;-56
2023/06/25 06:05:19;;;;;;;4.85;3.53;;;25.40;43.60;;;;;;4962167;28;45906;-58
2023/06/25 06:07:44;;;;;;;3.88;3.33;;;25.40;43.20;;;;;;4949194;28;45399;-57
2023/06/25 06:10:15;;;;;;;4.57;3.67;;;25.40;43.10;;;;;;4960589;28;45354;-56
2023/06/25 06:12:41;;;;;;;4.28;3.75;;;25.40;43.10;;;;;;4950340;28;45042;-55
2023/06/25 06:15:10;;;;;;;4.65;3.88;;;25.40;43.10;;;;;;4945040;28;45606;-60
2023/06/25 06:17:35;;;;;;;4.03;3.30;;;25.50;43.10;;;;;;4960568;28;45300;-56
2023/06/25 06:20:01;;;;;;;4.53;3.42;;;25.50;43.10;;;;;;4967487;28;45706;-56
2023/06/25 06:22:28;;;;;;;5.18;3.55;;;25.60;43.10;;;;;;4946837;28;46023;-56
2023/06/25 06:24:53;;;;;;;3.97;3.30;;;25.60;42.90;;;;;;4964317;28;47203;-57
2023/06/25 06:27:19;;;;;;;4.13;3.25;;;25.60;42.80;;;;;;4963045;28;45877;-56
2023/06/25 06:29:44;;;;;;;4.22;3.67;;;25.70;42.90;;;;;;4952445;28;45327;-57
2023/06/25 06:32:10;;;;;;;3.92;3.30;;;25.70;42.70;;;;;;4952110;28;45686;-56
2023/06/25 06:34:36;;;;;;;3.80;2.85;;;25.80;42.60;;;;;;4948498;28;45605;-55
2023/06/25 06:37:02;;;;;;;3.45;3.05;;;25.80;42.50;;;;;;4946886;28;45534;-56
2023/06/25 06:39:28;;;;;;;3.70;3.00;;;25.90;42.40;;;;;;4966347;28;45601;-57
2023/06/25 06:41:53;;;;;;;3.95;3.10;;;26.00;42.30;;;;;;4961662;28;45673;-56
2023/06/25 06:44:19;;;;;;;3.03;2.72;;;26.00;42.20;;;;;;4949574;28;46057;-57
2023/06/25 06:46:45;;;;;;;4.18;3.28;;;26.00;42.00;;;;;;4956134;28;45750;-55
2023/06/25 06:49:11;;;;;;;3.92;3.05;;;26.10;42.00;;;;;;4966418;28;45334;-56
2023/06/25 06:51:37;;;;;;;3.67;3.00;;;26.10;41.80;;;;;;4959133;28;45669;-55
2023/06/25 06:54:03;;;;;;;6.45;3.03;;;26.20;41.80;;;;;;4949129;28;45979;-57
2023/06/25 06:56:29;;;;;;;5.93;2.95;;;26.20;41.80;;;;;;4964264;28;45294;-54
2023/06/25 06:58:54;;;;;;;4.00;2.95;;;26.20;41.70;;;;;;4941383;28;46927;-57
2023/06/25 07:01:20;;;;;;;4.25;3.38;;;26.20;41.60;;;;;;4934591;28;45613;-55
2023/06/25 07:03:45;;;;;;;4.25;2.75;;;26.20;41.60;;;;;;4947178;28;46455;-58
2023/06/25 07:06:11;;;;;;;3.75;3.35;;;26.20;41.60;;;;;;4943945;28;45219;-57
2023/06/25 07:08:36;;;;;;;3.90;2.92;;;26.30;41.70;;;;;;4944841;28;45469;-58
2023/06/25 07:11:02;;;;;;;3.53;2.83;;;26.30;41.70;;;;;;4921077;28;46238;-57
2023/06/25 07:13:29;;;;;;;6.40;3.30;;;26.30;41.70;;;;;;4946574;28;45884;-57
2023/06/25 07:15:54;;;;;;;4.57;3.25;;;26.30;41.70;;;;;;4939229;28;45721;-57
2023/06/25 07:18:20;;;;;;;3.60;3.20;;;26.30;41.50;;;;;;4947016;28;45662;-56
2023/06/25 07:20:45;;;;;;;3.42;3.05;;;26.30;41.50;;;;;;4922596;28;45827;-57
2023/06/25 07:23:11;;;;;;;3.22;2.80;;;26.40;41.60;;;;;;4927107;28;45858;-57
2023/06/25 07:25:36;;;;;;;3.92;3.10;;;26.40;41.50;;;;;;4940668;28;45951;-58
2023/06/25 07:28:02;;;;;;;3.83;3.15;;;26.50;41.50;;;;;;4947192;28;45967;-55
2023/06/25 07:30:28;;;;;;;3.35;3.05;;;26.50;41.40;;;;;;4938635;28;45565;-57
2023/06/25 07:32:54;;;;;;;4.60;2.95;;;26.50;41.30;;;;;;4926767;28;46019;-57
2023/06/25 07:35:21;;;;;;;4.00;3.00;;;26.50;41.30;;;;;;4923878;28;46193;-57
2023/06/25 07:37:47;;;;;;;3.20;2.75;;;26.60;41.30;;;;;;4945383;28;46261;-58
2023/06/25 07:40:12;;;;;;;3.72;3.15;;;26.60;41.20;;;;;;4942516;28;46369;-62
2023/06/25 07:42:38;;;;;;;4.43;3.33;;;26.60;41.20;;;;;;4926257;28;47070;-57
2023/06/25 07:45:04;;;;;;;4.18;3.17;;;26.70;41.20;;;;;;4926653;28;45585;-59
2023/06/25 07:47:30;;;;;;;3.35;2.92;;;26.70;41.20;;;;;;4889111;28;44997;-57
2023/06/25 07:49:56;;;;;;;3.60;3.20;;;26.70;41.00;;;;;;4947456;28;45976;-56
2023/06/25 07:52:21;;;;;;;4.03;2.70;;;26.80;41.00;;;;;;4943074;28;45907;-58
2023/06/25 07:54:47;;;;;;;3.78;3.13;;;26.80;41.00;;;;;;4945390;28;46087;-57
2023/06/25 07:57:12;;;;;;;3.67;2.88;;;26.90;40.90;;;;;;4941727;28;45538;-57
2023/06/25 07:59:38;;;;;;;4.43;2.92;;;26.90;40.90;;;;;;4929686;28;45185;-54
2023/06/25 08:02:04;;;;;;;3.80;2.90;;;26.90;40.90;;;;;;4947318;28;46027;-56
2023/06/25 08:04:29;;;;;;;3.42;3.13;;;26.90;40.80;;;;;;4967494;28;45078;-57
2023/06/25 08:06:55;;;;;;;4.55;3.50;;;26.90;40.70;;;;;;4959798;28;45064;-58
2023/06/25 08:09:20;;;;;;;4.30;3.40;;;27.00;40.60;;;;;;4961502;28;45550;-62
2023/06/25 08:11:46;;;;;;;7.18;3.72;;;27.00;40.40;;;;;;4960406;28;46174;-57
2023/06/25 08:14:11;;;;;;;4.78;3.88;;;27.10;40.50;;;;;;4965907;28;45421;-56
2023/06/25 08:16:37;;;;;;;4.72;4.20;;;27.10;40.40;;;;;;4962635;28;45278;-54
2023/06/25 08:19:03;;;;;;;4.95;3.70;;;27.10;40.40;;;;;;4952326;28;45239;-57
2023/06/25 08:21:28;;;;;;;6.80;3.95;;;27.10;40.30;;;;;;4963942;28;46289;-58
2023/06/25 08:23:54;;;;;;;4.03;3.63;;;27.20;40.20;;;;;;4951741;28;46140;-56
2023/06/25 08:26:19;;;;;;;7.35;3.67;;;27.20;40.00;;;;;;4963073;28;45015;-56
2023/06/25 08:28:45;;;;;;;3.70;3.17;;;27.20;40.50;;;;;;4967958;28;45298;-57
2023/06/25 08:31:10;;;;;;;3.90;3.13;;;27.20;39.90;;;;;;4939060;28;45975;-56
2023/06/25 08:33:39;;;;;;;4.13;3.15;;;27.30;39.90;;;;;;4967248;28;46194;-60
2023/06/25 08:36:04;;;;;;;5.68;3.22;;;27.30;40.50;;;;;;4957649;28;45277;-57
2023/06/25 08:38:31;;;;;;;4.70;3.53;;;27.30;40.00;;;;;;4964129;28;45384;-57
2023/06/25 08:40:57;;;;;;;4.65;3.08;;;27.30;40.50;;;;;;4960709;28;47223;-58
2023/06/25 08:43:22;;;;;;;3.38;3.05;;;27.40;40.00;;;;;;4964305;28;45811;-57
2023/06/25 08:45:48;;;;;;;4.28;2.95;;;27.40;39.90;;;;;;4942877;28;45770;-57
2023/06/25 08:48:13;;;;;;;3.58;2.67;;;27.40;40.00;;;;;;4962074;28;45450;-57
2023/06/25 08:50:41;;;;;;;3.10;2.80;;;27.40;39.90;;;;;;4960784;28;46273;-58
2023/06/25 08:53:06;;;;;;;3.40;2.83;;;27.40;39.90;;;;;;4948118;28;44831;-57
2023/06/25 08:55:32;;;;;;;4.78;3.33;;;27.40;39.90;;;;;;4943953;28;45319;-57
2023/06/25 08:57:58;;;;;;;2.97;2.60;;;27.50;39.80;;;;;;4950129;28;45948;-60
2023/06/25 09:00:24;;;;;;;3.72;2.88;;;27.50;39.80;;;;;;4958212;28;46966;-58
2023/06/25 09:02:49;;;;;;;4.30;2.85;;;27.60;39.80;;;;;;4944218;28;45640;-56
2023/06/25 09:05:26;;;;;;;3.30;2.90;;;27.60;39.80;;;;;;4942236;28;44789;-58
2023/06/25 09:07:51;;;;;;;3.53;2.97;;;27.60;39.60;;;;;;4949711;28;44830;-57
2023/06/25 09:10:19;;;;;;;3.47;2.70;;;27.60;39.90;;;;;;4942344;28;46909;-58
2023/06/25 09:12:46;;;;;;;3.08;2.58;;;27.60;39.60;;;;;;4946077;28;45746;-57
2023/06/25 09:15:12;;;;;;;2.78;2.38;;;27.70;39.70;;;;;;4941240;28;45253;-59
2023/06/25 09:17:37;;;;;;;3.25;2.42;;;27.70;39.60;;;;;;4956153;28;45824;-57
2023/06/25 09:20:07;;;;;;;3.05;2.40;;;27.70;39.70;;;;;;4960153;28;45982;-61
2023/06/25 09:22:33;;;;;;;2.63;2.35;;;27.70;39.60;;;;;;4961389;28;45532;-57
2023/06/25 09:24:58;;;;;;;2.90;2.53;;;27.70;39.30;;;;;;4965169;28;45756;-58
2023/06/25 09:27:24;;;;;;;2.55;2.35;;;27.80;39.10;;;;;;4939185;28;45774;-60
2023/06/25 09:29:49;;;;;;;2.70;2.50;;;27.80;39.10;;;;;;4962422;28;46193;-58
2023/06/25 09:32:16;;;;;;;3.40;2.45;;;27.80;39.10;;;;;;4953164;28;45437;-55
2023/06/25 09:34:45;;;;;;;2.97;2.40;;;27.90;39.00;;;;;;4966599;28;44729;-58
2023/06/25 09:37:10;;;;;;;2.58;2.38;;;27.90;38.90;;;;;;4959526;28;45860;-57
2023/06/25 09:39:36;;;;;;;4.05;2.90;;;27.90;38.90;;;;;;4947722;28;46840;-57
2023/06/25 09:42:01;;;;;;;2.40;1.95;;;27.90;38.80;;;;;;4961741;28;45446;-58
2023/06/25 09:44:27;;;;;;;2.95;2.45;;;27.90;38.80;;;;;;4966568;28;46830;-57
2023/06/25 09:46:59;;;;;;;3.55;2.00;;;28.00;38.80;;;;;;4943497;28;45395;-58
2023/06/25 09:49:25;;;;;;;3.20;2.60;;;28.00;38.80;;;;;;4956467;28;46605;-55
2023/06/25 09:52:14;;;;;;;3.45;2.45;;;28.00;38.60;;;;;;4942048;28;46176;-57
2023/06/25 09:54:40;;;;;;;3.63;1.98;;;28.00;38.20;;;;;;4943603;28;45537;-57
2023/06/25 09:57:09;;;;;;;2.40;1.92;;;28.00;38.60;;;;;;4941445;28;45609;-55
2023/06/25 09:59:35;;;;;;;3.28;2.40;;;28.00;38.60;;;;;;4949509;28;46242;-56
2023/06/25 10:02:01;;;;;;;4.13;2.05;;;28.10;38.60;;;;;;4935798;28;45217;-57
2023/06/25 10:04:26;;;;;;;3.28;2.28;;;28.10;38.30;;;;;;4943504;28;46284;-57
2023/06/25 10:06:52;;;;;;;4.82;2.40;;;28.20;38.30;;;;;;4959526;28;45730;-57
2023/06/25 10:09:18;;;;;;;2.47;2.05;;;28.20;38.20;;;;;;4928041;28;46606;-57
2023/06/25 10:11:50;;;;;;;2.60;2.35;;;28.20;38.00;;;;;;4958184;28;44729;-57
2023/06/25 10:14:16;;;;;;;3.15;2.40;;;28.20;37.60;;;;;;4965917;28;45250;-57
2023/06/25 10:16:41;;;;;;;3.10;2.05;;;28.20;37.90;;;;;;4958179;28;46038;-56
2023/06/25 10:19:07;;;;;;;2.67;2.30;;;28.20;37.90;;;;;;4950205;28;46322;-57
2023/06/25 10:21:33;;;;;;;3.00;2.22;;;28.30;38.00;;;;;;4963477;28;45059;-54
2023/06/25 10:24:00;;;;;;;2.97;2.15;;;28.30;37.90;;;;;;4970375;28;46006;-56
2023/06/25 10:26:36;;;;;;;3.17;2.45;;;28.30;37.80;;;;;;4946761;28;45774;-58
2023/06/25 10:29:06;;;;;;;2.70;2.20;;;28.30;37.50;;;;;;4969923;28;46478;-58
2023/06/25 10:31:39;;;;;;;2.13;1.92;;;28.30;37.70;;;;;;4959145;28;45425;-56
2023/06/25 10:34:05;;;;;;;3.20;2.10;;;28.40;37.10;;;;;;4960527;28;45662;-63
2023/06/25 10:36:31;;;;;;;2.60;2.20;;;28.30;37.80;;;;;;4963634;28;45782;-57
2023/06/25 10:38:58;;;;;;;5.20;2.13;;;28.40;37.60;;;;;;4962700;28;46027;-58
2023/06/25 10:41:28;;;;;;;2.92;2.40;;;28.40;37.40;;;;;;4962734;28;45570;-58
2023/06/25 10:43:53;;;;;;;3.88;2.13;;;28.50;37.30;;;;;;4965628;28;45366;-58
2023/06/25 10:46:29;;;;;;;3.03;2.17;;;28.50;37.50;;;;;;4956197;28;45435;-57
2023/06/25 10:48:55;;;;;;;2.65;2.10;;;28.50;37.20;;;;;;4963797;28;45690;-58
2023/06/25 10:51:20;;;;;;;2.33;2.13;;;28.50;37.50;;;;;;4958248;28;46216;-57
2023/06/25 10:53:47;;;;;;;3.38;2.40;;;28.50;37.20;;;;;;4946631;28;45434;-57
2023/06/25 10:56:12;;;;;;;2.42;2.08;;;28.50;37.10;;;;;;4960062;28;45858;-57
2023/06/25 10:58:41;;;;;;;2.60;2.40;;;28.50;37.20;;;;;;4948720;28;46047;-55
2023/06/25 11:01:07;;;;;;;3.00;2.72;;;28.50;37.20;;;;;;4957718;28;45721;-57
2023/06/25 11:03:35;;;;;;;2.83;2.40;;;28.50;37.10;;;;;;4965735;28;45407;-56
2023/06/25 11:06:00;;;;;;;2.35;2.03;;;28.60;37.10;;;;;;4944027;28;45510;-56
2023/06/25 11:08:26;;;;;;;2.30;2.10;;;28.60;37.20;;;;;;4963822;28;45592;-56
2023/06/25 11:10:52;;;;;;;2.47;2.28;;;28.60;37.20;;;;;;4963324;28;45401;-57
2023/06/25 11:13:17;;;;;;;3.28;2.50;;;28.60;36.90;;;;;;4949620;28;45628;-55
2023/06/25 11:15:43;;;;;;;3.35;2.28;;;28.70;37.00;;;;;;4955498;28;45398;-59
2023/06/25 11:18:08;;;;;;;4.88;2.42;;;28.70;37.00;;;;;;4947957;28;46695;-58
2023/06/25 11:20:34;;;;;;;2.50;2.30;;;28.70;36.80;;;;;;4962249;28;46176;-58
2023/06/25 11:23:01;;;;;;;3.03;2.47;;;28.70;36.80;;;;;;4952977;28;45621;-57
2023/06/25 11:25:27;;;;;;;4.75;2.58;;;28.70;36.70;;;;;;4956717;28;44901;-60
2023/06/25 11:28:04;;;;;;;2.60;2.05;;;28.70;36.70;;;;;;4963871;28;45833;-55
2023/06/25 11:30:30;;;;;;;4.07;2.30;;;28.70;36.40;;;;;;4941369;28;45386;-56
2023/06/25 11:33:15;;;;;;;3.13;2.30;;;28.70;36.70;;;;;;4948439;28;46214;-55
2023/06/25 11:35:41;;;;;;;3.35;2.50;;;28.70;36.20;;;;;;4945065;28;45583;-56
2023/06/25 11:38:07;;;;;;;3.08;2.42;;;28.80;36.60;;;;;;4959341;28;45891;-56
2023/06/25 11:40:35;;;;;;;2.65;2.13;;;28.80;36.50;;;;;;4951988;28;45946;-56
2023/06/25 11:43:00;;;;;;;2.40;2.20;;;28.80;36.50;;;;;;4963777;28;45512;-56
2023/06/25 11:45:26;;;;;;;2.28;2.05;;;28.80;36.50;;;;;;4957499;28;46237;-56
2023/06/25 11:47:53;;;;;;;2.70;2.25;;;28.80;36.60;;;;;;4946311;28;45968;-58
2023/06/25 11:50:26;;;;;;;2.50;2.30;;;28.90;36.60;;;;;;4956150;28;45461;-55
2023/06/25 11:52:55;;;;;;;2.30;2.10;;;28.90;36.30;;;;;;4967244;28;44838;-56
2023/06/25 11:55:21;;;;;;;3.25;2.50;;;28.90;36.60;;;;;;4946037;28;45563;-54
2023/06/25 11:57:50;;;;;;;2.45;2.25;;;28.90;36.60;;;;;;4950882;28;45941;-56
2023/06/25 12:00:16;;;;;;;3.85;2.53;;;28.90;36.50;;;;;;4942191;28;45031;-56
2023/06/25 12:02:41;;;;;;;2.30;2.10;;;28.90;36.60;;;;;;4962505;28;46912;-54
2023/06/25 12:05:07;;;;;;;3.58;2.22;;;28.90;36.50;;;;;;4945124;28;45610;-58
2023/06/25 12:07:33;;;;;;;2.45;2.25;;;28.90;36.60;;;;;;4948839;28;46034;-56
2023/06/25 12:09:58;;;;;;;2.28;2.08;;;28.90;36.60;;;;;;4968598;28;45047;-55
2023/06/25 12:12:24;;;;;;;2.22;2.03;;;28.90;36.60;;;;;;4960738;28;45850;-55
2023/06/25 12:14:50;;;;;;;3.50;2.10;;;29.00;37.00;;;;;;4948999;28;46254;-55
2023/06/25 12:17:15;;;;;;;3.03;2.40;;;29.00;36.50;;;;;;4954493;28;46216;-56
2023/06/25 12:19:41;;;;;;;2.90;2.42;;;29.00;36.50;;;;;;4965950;28;45702;-56
2023/06/25 12:22:07;;;;;;;2.42;1.92;;;29.00;36.60;;;;;;4942181;28;45334;-57
2023/06/25 12:24:33;;;;;;;2.35;2.00;;;29.00;36.30;;;;;;4959413;28;45675;-56
2023/06/25 12:26:58;;;;;;;2.38;2.17;;;29.00;36.00;;;;;;4958019;28;45345;-56
2023/06/25 12:29:24;;;;;;;3.45;2.58;;;29.00;35.90;;;;;;4949172;28;46247;-56
2023/06/25 12:31:50;;;;;;;3.15;2.55;;;29.10;36.00;;;;;;4938169;28;45602;-57
2023/06/25 12:34:15;;;;;;;2.42;2.22;;;29.10;36.00;;;;;;4962204;28;45618;-57
2023/06/25 12:36:41;;;;;;;3.03;2.28;;;29.10;35.90;;;;;;4942840;28;47003;-55
2023/06/25 12:39:06;;;;;;;2.83;2.15;;;29.10;35.90;;;;;;4959056;28;46168;-56
2023/06/25 12:41:32;;;;;;;3.88;2.40;;;29.10;35.70;;;;;;4937047;28;45739;-57
2023/06/25 12:43:57;;;;;;;2.95;2.15;;;29.20;35.60;;;;;;4965957;28;45730;-57
2023/06/25 12:46:23;;;;;;;2.30;2.10;;;29.20;35.70;;;;;;4955656;28;46512;-56
2023/06/25 12:48:48;;;;;;;2.63;2.42;;;29.20;35.60;;;;;;4958438;28;45699;-57
2023/06/25 12:51:14;;;;;;;2.58;2.13;;;29.20;35.60;;;;;;4960775;28;45587;-59
2023/06/25 12:53:40;;;;;;;2.70;2.50;;;29.20;35.70;;;;;;4948843;28;45510;-57
2023/06/25 12:56:05;;;;;;;3.33;2.30;;;29.20;35.70;;;;;;4959823;28;46596;-55
2023/06/25 12:58:31;;;;;;;5.25;2.65;;;29.20;35.50;;;;;;4946000;28;46326;-56
2023/06/25 13:00:56;;;;;;;2.40;2.20;;;29.20;35.40;;;;;;4953525;28;45066;-57
2023/06/25 13:03:22;;;;;;;2.47;2.25;;;29.20;35.50;;;;;;4942651;28;45981;-58
2023/06/25 13:05:47;;;;;;;3.67;2.33;;;29.20;35.50;;;;;;4939241;28;46076;-57
2023/06/25 13:08:16;;;;;;;4.95;2.42;;;29.20;35.50;;;;;;4946667;28;45795;-56
2023/06/25 13:10:41;;;;;;;2.30;2.00;;;29.20;35.20;;;;;;4937101;28;45637;-56
2023/06/25 13:13:07;;;;;;;2.88;2.58;;;29.20;35.20;;;;;;4944022;28;45491;-57
2023/06/25 13:15:33;;;;;;;2.78;2.40;;;29.30;35.10;;;;;;4933474;28;45677;-60
2023/06/25 13:17:59;;;;;;;2.35;2.00;;;29.30;35.00;;;;;;4937469;28;45354;-57
2023/06/25 13:20:24;;;;;;;5.10;2.30;;;29.30;34.90;;;;;;4937658;28;44851;-57
2023/06/25 13:22:50;;;;;;;2.47;2.20;;;29.30;35.00;;;;;;4923712;28;44975;-57
2023/06/25 13:25:15;;;;;;;2.83;2.53;;;29.30;34.90;;;;;;4940673;28;45573;-56
2023/06/25 13:27:41;;;;;;;2.47;2.28;;;29.30;34.90;;;;;;4926935;28;45517;-57
2023/06/25 13:30:07;;;;;;;2.60;2.30;;;29.30;34.90;;;;;;4939302;28;45676;-57
2023/06/25 13:32:33;;;;;;;2.58;2.00;;;29.30;35.50;;;;;;4918296;28;45638;-58
2023/06/25 13:34:59;;;;;;;2.55;2.13;;;29.30;34.80;;;;;;4926653;28;47299;-58
2023/06/25 13:37:24;;;;;;;2.35;2.15;;;29.30;35.00;;;;;;4938636;28;45290;-57
2023/06/25 13:39:50;;;;;;;3.00;2.65;;;29.30;34.60;;;;;;4945083;28;45330;-57
2023/06/25 13:42:15;;;;;;;2.30;2.10;;;29.40;34.60;;;;;;4939098;28;45483;-58
2023/06/25 13:44:41;;;;;;;2.90;2.60;;;29.40;34.70;;;;;;4941750;28;46277;-57
2023/06/25 13:47:07;;;;;;;2.55;2.35;;;29.40;34.70;;;;;;4934970;28;45090;-58
2023/06/25 13:49:33;;;;;;;2.58;2.33;;;29.40;34.60;;;;;;4926020;28;45557;-56
2023/06/25 13:51:59;;;;;;;2.45;2.15;;;29.40;34.60;;;;;;4943375;28;45887;-55
2023/06/25 13:54:24;;;;;;;2.50;2.30;;;29.40;34.40;;;;;;4943242;28;45886;-58
2023/06/25 13:56:51;;;;;;;2.53;2.22;;;29.40;34.30;;;;;;4941791;28;45110;-57
2023/06/25 13:59:18;;;;;;;4.05;2.17;;;29.40;34.10;;;;;;4932421;28;45546;-57
2023/06/25 14:01:44;;;;;;;2.30;2.10;;;29.40;34.10;;;;;;4947467;28;44765;-57
2023/06/25 14:04:10;;;;;;;2.58;2.38;;;29.40;33.90;;;;;;4965956;28;46120;-58
2023/06/25 14:06:36;;;;;;;2.25;2.05;;;29.40;33.70;;;;;;4960631;28;45799;-57
2023/06/25 14:09:01;;;;;;;2.40;2.20;;;29.50;33.60;;;;;;4952408;28;45427;-57
2023/06/25 14:11:27;;;;;;;2.47;2.28;;;29.50;33.40;;;;;;4961659;28;45789;-58
2023/06/25 14:13:53;;;;;;;2.75;2.10;;;29.50;33.30;;;;;;4966638;28;46015;-58
2023/06/25 14:16:18;;;;;;;2.70;2.50;;;29.50;33.30;;;;;;4940986;28;45683;-58
2023/06/25 14:18:44;;;;;;;2.45;2.25;;;29.50;33.30;;;;;;4965746;28;45653;-57
2023/06/25 14:21:10;;;;;;;3.00;2.47;;;29.50;33.10;;;;;;4963878;28;45323;-57
2023/06/25 14:23:35;;;;;;;2.95;2.22;;;29.50;33.10;;;;;;4964457;28;45495;-57
2023/06/25 14:26:03;;;;;;;4.88;2.20;;;29.50;33.20;;;;;;4942118;28;45549;-58
2023/06/25 14:28:28;;;;;;;3.42;2.28;;;29.50;33.10;;;;;;4947366;28;45484;-57
2023/06/25 14:30:54;;;;;;;2.80;2.50;;;29.50;33.10;;;;;;4955865;28;45325;-59
2023/06/25 14:33:19;;;;;;;2.65;2.45;;;29.50;33.00;;;;;;4943430;28;47083;-57
2023/06/25 14:35:45;;;;;;;2.75;2.42;;;29.50;33.20;;;;;;4960975;28;44961;-57
2023/06/25 14:38:10;;;;;;;3.30;2.13;;;29.50;33.20;;;;;;4964195;28;45710;-55
2023/06/25 14:40:36;;;;;;;2.67;2.47;;;29.50;33.30;;;;;;4961976;28;45573;-58
2023/06/25 14:43:02;;;;;;;3.47;2.50;;;29.50;33.40;;;;;;4967000;28;46261;-58
2023/06/25 14:45:28;;;;;;;2.55;2.35;;;29.50;33.10;;;;;;4939364;28;45792;-60
2023/06/25 14:47:53;;;;;;;3.00;2.60;;;29.50;33.10;;;;;;4944732;28;45237;-57
2023/06/25 14:50:19;;;;;;;3.47;2.60;;;29.50;33.20;;;;;;4944815;28;45318;-63
2023/06/25 14:52:44;;;;;;;4.22;2.50;;;29.50;33.20;;;;;;4963168;28;45764;-58
2023/06/25 14:55:10;;;;;;;2.63;2.28;;;29.50;33.20;;;;;;4962170;28;45693;-57
2023/06/25 14:57:35;;;;;;;2.67;2.47;;;29.50;33.20;;;;;;4965385;28;45514;-56
2023/06/25 15:00:01;;;;;;;2.80;2.17;;;29.50;33.30;;;;;;4967471;28;45512;-57
2023/06/25 15:02:26;;;;;;;2.67;2.47;;;29.50;33.20;;;;;;4937943;28;45902;-56
2023/06/25 15:04:52;;;;;;;4.15;2.33;;;29.50;33.10;;;;;;4963032;28;45779;-56
2023/06/25 15:07:18;;;;;;;2.35;2.15;;;29.60;33.00;;;;;;4955299;28;45351;-56
2023/06/25 15:09:44;;;;;;;3.15;2.65;;;29.50;32.90;;;;;;4933840;28;45648;-57
2023/06/25 15:12:10;;;;;;;2.75;2.50;;;29.50;32.90;;;;;;4961883;28;46798;-57
2023/06/25 15:14:35;;;;;;;2.35;2.03;;;29.50;32.90;;;;;;4960703;28;45799;-57
2023/06/25 15:17:01;;;;;;;3.67;2.47;;;29.50;33.10;;;;;;4952557;28;45555;-57
2023/06/25 15:19:26;;;;;;;2.75;2.50;;;29.50;33.10;;;;;;4928192;28;45392;-56
2023/06/25 15:21:52;;;;;;;3.25;2.85;;;29.50;33.00;;;;;;4962073;28;45632;-57
2023/06/25 15:24:17;;;;;;;2.85;2.45;;;29.60;33.20;;;;;;4965425;28;45679;-57
2023/06/25 15:26:43;;;;;;;2.85;2.42;;;29.60;33.10;;;;;;4957423;28;45539;-57
2023/06/25 15:29:08;;;;;;;3.78;2.58;;;29.60;33.10;;;;;;4968091;28;45693;-57
2023/06/25 15:31:34;;;;;;;3.40;2.78;;;29.60;33.10;;;;;;4953425;28;47442;-57
2023/06/25 15:33:59;;;;;;;3.38;2.53;;;29.60;33.10;;;;;;4964478;28;45642;-56
2023/06/25 15:36:25;;;;;;;2.40;2.20;;;29.60;33.20;;;;;;4962330;28;44705;-57
2023/06/25 15:38:50;;;;;;;2.78;2.38;;;29.60;33.20;;;;;;4969236;28;44878;-56
2023/06/25 15:41:16;;;;;;;2.67;2.47;;;29.60;33.20;;;;;;4963157;28;47766;-58